createdAt,value
2023-04-06T00:00:51.053Z,7.20
2023-04-06T00:03:18.781Z,6.37
2023-04-06T00:05:46.398Z,6.70
2023-04-06T00:08:13.807Z,6.93
2023-04-06T00:10:41.370Z,7.20
2023-04-06T00:13:08.882Z,6.30
2023-04-06T00:15:36.839Z,6.10
2023-04-06T00:18:05.702Z,5.47
2023-04-06T00:20:33.202Z,4.50
2023-04-06T00:23:00.592Z,6.73
2023-04-06T00:25:28.082Z,4.23
2023-04-06T00:27:55.614Z,5.53
2023-04-06T00:30:23.309Z,6.10
2023-04-06T00:32:51.837Z,7.83
2023-04-06T00:35:20.875Z,5.27
2023-04-06T00:37:48.936Z,4.17
2023-04-06T00:40:16.445Z,3.80
2023-04-06T00:42:44.005Z,4.27
2023-04-06T00:45:12.205Z,4.13
2023-04-06T00:47:39.814Z,5.17
2023-04-06T00:50:08.312Z,4.33
2023-04-06T00:52:37.101Z,4.30
2023-04-06T00:55:04.860Z,4.57
2023-04-06T00:57:33.048Z,4.90
2023-04-06T01:00:00.571Z,4.20
2023-04-06T01:02:28.061Z,5.10
2023-04-06T01:04:56.224Z,4.70
2023-04-06T01:07:23.709Z,4.67
2023-04-06T01:09:54.730Z,4.87
2023-04-06T01:12:22.202Z,4.00
2023-04-06T01:14:50.517Z,4.13
2023-04-06T01:17:18.241Z,4.33
2023-04-06T01:19:46.492Z,4.77
2023-04-06T01:22:17.392Z,3.90
2023-04-06T01:24:44.889Z,4.50
2023-04-06T01:27:12.546Z,4.70
2023-04-06T01:29:42.105Z,4.73
2023-04-06T01:32:09.969Z,3.93
2023-04-06T01:34:37.530Z,4.30
2023-04-06T01:37:04.930Z,5.17
2023-04-06T01:39:33.662Z,4.20
2023-04-06T01:42:01.039Z,4.60
2023-04-06T01:44:31.196Z,4.10
2023-04-06T01:46:58.667Z,4.73
2023-04-06T01:49:26.640Z,4.90
2023-04-06T01:51:55.298Z,4.47
2023-04-06T01:54:22.788Z,4.53
2023-04-06T01:56:52.496Z,4.40
2023-04-06T01:59:19.946Z,4.07
2023-04-06T02:01:48.356Z,4.10
2023-04-06T02:04:16.191Z,4.90
2023-04-06T02:06:43.613Z,4.10
2023-04-06T02:09:11.008Z,3.93
2023-04-06T02:11:38.420Z,4.67
2023-04-06T02:14:07.151Z,5.20
2023-04-06T02:16:34.608Z,5.33
2023-04-06T02:19:02.002Z,4.37
2023-04-06T02:21:29.573Z,4.40
2023-04-06T02:23:56.996Z,4.63
2023-04-06T02:26:24.434Z,4.70
2023-04-06T02:28:51.812Z,4.73
2023-04-06T02:31:20.572Z,5.30
2023-04-06T02:33:48.009Z,4.47
2023-04-06T02:36:15.803Z,4.67
2023-04-06T02:38:43.215Z,4.40
2023-04-06T02:41:10.713Z,4.67
2023-04-06T02:43:38.092Z,4.87
2023-04-06T02:46:05.549Z,4.77
2023-04-06T02:48:36.988Z,4.70
2023-04-06T02:51:04.598Z,4.67
2023-04-06T02:53:31.966Z,5.40
2023-04-06T02:55:59.387Z,4.70
2023-04-06T02:58:26.825Z,4.13
2023-04-06T03:00:54.276Z,4.40
2023-04-06T03:03:22.379Z,4.73
2023-04-06T03:05:51.519Z,5.03
2023-04-06T03:08:18.947Z,5.10
2023-04-06T03:10:46.376Z,5.30
2023-04-06T03:13:13.826Z,5.40
2023-04-06T03:15:41.555Z,5.03
2023-04-06T03:18:09.059Z,5.07
2023-04-06T03:20:36.584Z,4.97
2023-04-06T03:23:05.349Z,5.10
2023-04-06T03:25:32.766Z,5.20
2023-04-06T03:28:00.250Z,5.00
2023-04-06T03:30:27.700Z,4.90
2023-04-06T03:32:55.402Z,5.50
2023-04-06T03:35:22.913Z,4.40
2023-04-06T03:37:50.625Z,5.13
2023-04-06T03:40:19.425Z,5.60
2023-04-06T03:42:46.829Z,4.83
2023-04-06T03:45:14.985Z,5.53
2023-04-06T03:47:42.460Z,5.00
2023-04-06T03:50:10.900Z,5.30
2023-04-06T03:52:38.385Z,5.60
2023-04-06T03:55:06.914Z,6.00
2023-04-06T03:57:35.626Z,5.50
2023-04-06T04:00:03.229Z,5.27
2023-04-06T04:02:30.736Z,6.03
2023-04-06T04:04:58.282Z,5.83
2023-04-06T04:07:25.812Z,5.47
2023-04-06T04:09:53.182Z,5.60
2023-04-06T04:12:20.858Z,6.33
2023-04-06T04:14:49.593Z,6.03
2023-04-06T04:17:17.015Z,6.60
2023-04-06T04:19:44.405Z,6.47
2023-04-06T04:22:11.860Z,7.17
2023-04-06T04:24:39.249Z,6.23
2023-04-06T04:27:06.725Z,6.70
2023-04-06T04:29:34.181Z,6.60
2023-04-06T04:32:02.949Z,7.00
2023-04-06T04:34:30.438Z,6.67
2023-04-06T04:36:57.901Z,6.90
2023-04-06T04:39:25.350Z,6.77
2023-04-06T04:41:53.031Z,7.80
2023-04-06T04:44:20.843Z,7.27
2023-04-06T04:46:48.295Z,6.83
2023-04-06T04:49:17.067Z,7.53
2023-04-06T04:51:44.473Z,7.77
2023-04-06T04:54:11.923Z,7.30
2023-04-06T04:56:39.348Z,7.07
2023-04-06T04:59:07.008Z,8.47
2023-04-06T05:01:43.944Z,7.83
2023-04-06T05:04:22.951Z,7.57
2023-04-06T05:06:50.413Z,7.03
2023-04-06T05:09:18.450Z,8.00
2023-04-06T05:11:45.974Z,8.03
2023-04-06T05:14:13.473Z,8.73
2023-04-06T05:16:41.029Z,7.43
2023-04-06T05:19:08.833Z,10.97
2023-04-06T05:21:37.706Z,7.80
2023-04-06T05:24:05.398Z,7.60
2023-04-06T05:26:32.835Z,7.40
2023-04-06T05:29:00.329Z,7.37
2023-04-06T05:31:27.809Z,7.80
2023-04-06T05:33:55.434Z,7.33
2023-04-06T05:36:22.836Z,7.87
2023-04-06T05:38:53.706Z,7.47
2023-04-06T05:41:21.166Z,8.07
2023-04-06T05:43:48.583Z,7.33
2023-04-06T05:46:16.271Z,7.43
2023-04-06T05:48:43.709Z,7.27
2023-04-06T05:51:11.114Z,7.93
2023-04-06T05:53:38.868Z,7.73
2023-04-06T05:56:08.294Z,7.97
2023-04-06T05:58:35.719Z,7.90
2023-04-06T06:01:04.538Z,9.40
2023-04-06T06:03:32.309Z,8.27
2023-04-06T06:06:05.027Z,7.70
2023-04-06T06:08:33.012Z,8.47
2023-04-06T06:11:01.160Z,8.27
2023-04-06T06:13:29.929Z,8.03
2023-04-06T06:15:57.417Z,8.13
2023-04-06T06:18:25.020Z,8.47
2023-04-06T06:20:52.520Z,8.73
2023-04-06T06:23:19.945Z,8.87
2023-04-06T06:25:47.366Z,8.50
2023-04-06T06:28:15.738Z,7.77
2023-04-06T06:30:44.553Z,7.73
2023-04-06T06:33:11.930Z,7.93
2023-04-06T06:35:39.370Z,7.40
2023-04-06T06:38:06.822Z,7.80
2023-04-06T06:40:35.381Z,7.73
2023-04-06T06:43:02.853Z,7.90
2023-04-06T06:45:30.735Z,7.37
2023-04-06T06:47:59.931Z,6.97
2023-04-06T06:50:27.432Z,6.30
2023-04-06T06:52:55.101Z,6.60
2023-04-06T06:55:22.528Z,6.90
2023-04-06T06:57:50.033Z,7.07
2023-04-06T07:00:18.006Z,6.23
2023-04-06T07:02:45.758Z,7.80
2023-04-06T07:05:26.979Z,7.23
2023-04-06T07:07:55.995Z,6.87
2023-04-06T07:10:23.610Z,6.63
2023-04-06T07:12:51.089Z,10.67
2023-04-06T07:15:19.204Z,9.70
2023-04-06T07:17:46.911Z,6.60
2023-04-06T07:20:16.472Z,5.97
2023-04-06T07:22:45.484Z,7.97
2023-04-06T07:25:13.222Z,6.87
2023-04-06T07:27:40.919Z,5.53
2023-04-06T07:30:09.684Z,6.00
2023-04-06T07:32:37.651Z,5.60
2023-04-06T07:35:05.593Z,6.93
2023-04-06T07:37:34.389Z,7.20
2023-04-06T07:40:01.818Z,7.27
2023-04-06T07:42:29.252Z,5.40
2023-04-06T07:44:56.774Z,5.57
2023-04-06T07:47:25.221Z,5.40
2023-04-06T07:49:52.688Z,5.17
2023-04-06T07:52:20.083Z,5.70
2023-04-06T07:54:50.360Z,5.10
2023-04-06T07:57:17.782Z,4.73
2023-04-06T07:59:45.329Z,5.53
2023-04-06T08:02:12.799Z,4.30
2023-04-06T08:04:40.306Z,4.30
2023-04-06T08:07:07.752Z,5.50
2023-04-06T08:09:35.522Z,7.30
2023-04-06T08:12:04.312Z,5.30
2023-04-06T08:14:31.799Z,5.07
2023-04-06T08:16:59.265Z,7.63
2023-04-06T08:19:26.774Z,4.97
2023-04-06T08:21:54.171Z,4.53
2023-04-06T08:24:21.581Z,4.00
2023-04-06T08:26:49.086Z,4.20
2023-04-06T08:29:17.819Z,3.90
2023-04-06T08:31:45.362Z,4.13
2023-04-06T08:34:14.347Z,3.57
2023-04-06T08:36:42.939Z,3.80
2023-04-06T08:39:10.397Z,3.27
2023-04-06T08:41:37.779Z,3.17
2023-04-06T08:44:05.914Z,4.10
2023-04-06T08:46:35.019Z,2.93
2023-04-06T08:49:04.824Z,2.77
2023-04-06T08:51:32.622Z,2.90
2023-04-06T08:54:01.525Z,2.70
2023-04-06T08:56:30.044Z,2.87
2023-04-06T08:58:58.124Z,3.07
2023-04-06T09:01:29.247Z,2.60
2023-04-06T09:03:59.979Z,2.90
2023-04-06T09:06:28.650Z,2.80
2023-04-06T09:08:57.568Z,2.70
2023-04-06T09:11:25.024Z,2.97
2023-04-06T09:13:53.821Z,2.70
2023-04-06T09:16:21.664Z,2.30
2023-04-06T09:18:49.705Z,2.30
2023-04-06T09:21:22.821Z,2.40
2023-04-06T09:24:00.803Z,2.27
2023-04-06T09:26:28.817Z,2.77
2023-04-06T09:28:57.489Z,2.50
2023-04-06T09:31:26.406Z,2.00
2023-04-06T09:33:54.920Z,2.00
2023-04-06T09:36:32.165Z,3.70
2023-04-06T09:39:01.630Z,2.50
2023-04-06T09:41:30.434Z,2.00
2023-04-06T09:44:05.295Z,2.27
2023-04-06T09:46:43.039Z,1.90
2023-04-06T09:49:20.270Z,2.00
2023-04-06T09:51:55.516Z,2.60
2023-04-06T09:54:24.472Z,2.00
2023-04-06T09:56:56.943Z,2.03
2023-04-06T09:59:33.508Z,2.10
2023-04-06T10:02:02.344Z,2.37
2023-04-06T10:04:42.520Z,2.13
2023-04-06T10:07:13.032Z,2.23
2023-04-06T10:09:40.642Z,2.40
2023-04-06T10:12:08.676Z,2.10
2023-04-06T10:14:37.979Z,2.00
2023-04-06T10:17:06.487Z,1.90
2023-04-06T10:19:43.559Z,1.70
2023-04-06T10:22:17.506Z,1.70
2023-04-06T10:24:44.899Z,1.80
2023-04-06T10:27:12.378Z,1.67
2023-04-06T10:29:47.571Z,1.90
2023-04-06T10:32:15.199Z,2.10
2023-04-06T10:34:42.679Z,1.80
2023-04-06T10:37:16.005Z,1.90
2023-04-06T10:39:58.440Z,1.63
2023-04-06T10:42:26.676Z,2.00
2023-04-06T10:44:54.138Z,2.50
2023-04-06T10:47:21.645Z,2.80
2023-04-06T10:49:49.091Z,2.20
2023-04-06T10:52:17.887Z,2.33
2023-04-06T10:54:46.956Z,2.00
2023-04-06T10:57:16.086Z,2.17
2023-04-06T10:59:45.117Z,1.70
2023-04-06T11:02:21.786Z,2.23
2023-04-06T11:04:56.734Z,2.10
2023-04-06T11:07:31.080Z,1.90
2023-04-06T11:10:13.516Z,2.33
2023-04-06T11:12:44.775Z,1.90
2023-04-06T11:15:12.792Z,2.63
2023-04-06T11:17:40.615Z,2.27
2023-04-06T11:20:12.855Z,2.20
2023-04-06T11:22:51.914Z,1.90
2023-04-06T11:25:19.988Z,2.30
2023-04-06T11:27:48.780Z,4.07
2023-04-06T11:30:16.832Z,3.03
2023-04-06T11:32:45.322Z,2.30
2023-04-06T11:35:14.429Z,2.20
2023-04-06T11:37:41.898Z,2.70
2023-04-06T11:40:12.203Z,2.33
2023-04-06T11:42:39.694Z,2.20
2023-04-06T11:45:09.458Z,2.60
2023-04-06T11:47:39.240Z,2.17
2023-04-06T11:50:11.461Z,2.30
2023-04-06T11:52:40.310Z,2.50
2023-04-06T11:55:17.529Z,2.27
2023-04-06T11:57:45.992Z,2.13
2023-04-06T12:00:14.600Z,2.30
2023-04-06T12:02:47.156Z,2.23
2023-04-06T12:05:14.909Z,2.20
2023-04-06T12:10:15.992Z,2.50
2023-04-06T12:12:43.385Z,2.43
2023-04-06T12:15:11.442Z,2.33
2023-04-06T12:17:39.100Z,2.07
2023-04-06T12:20:22.025Z,2.20
2023-04-06T12:22:53.049Z,2.30
2023-04-06T12:25:22.117Z,2.30
2023-04-06T12:27:49.721Z,2.53
2023-04-06T12:30:17.697Z,2.10
2023-04-06T12:32:45.271Z,2.00
2023-04-06T12:35:16.586Z,2.30
2023-04-06T12:37:44.158Z,2.40
2023-04-06T12:40:12.829Z,2.33
2023-04-06T12:42:42.696Z,2.90
2023-04-06T12:45:11.073Z,2.23
2023-04-06T12:47:38.707Z,2.30
2023-04-06T12:50:07.748Z,2.63
2023-04-06T12:52:36.291Z,2.40
2023-04-06T12:55:03.904Z,2.23
2023-04-06T12:57:31.629Z,2.50
2023-04-06T13:00:01.153Z,2.67
2023-04-06T13:02:28.967Z,2.70
2023-04-06T13:04:56.424Z,2.63
2023-04-06T13:07:23.897Z,2.70
2023-04-06T13:09:51.400Z,2.80
2023-04-06T13:12:18.818Z,2.97
2023-04-06T13:14:48.372Z,3.13
2023-04-06T13:17:17.738Z,2.70
2023-04-06T13:19:45.279Z,2.67
2023-04-06T13:22:12.677Z,2.93
2023-04-06T13:24:40.071Z,2.77
2023-04-06T13:27:07.510Z,2.60
2023-04-06T13:29:35.216Z,2.70
2023-04-06T13:32:02.691Z,2.87
2023-04-06T13:34:31.449Z,2.80
2023-04-06T13:36:58.915Z,2.97
2023-04-06T13:39:27.229Z,2.70
2023-04-06T13:41:56.393Z,3.20
2023-04-06T13:44:23.939Z,3.10
2023-04-06T13:46:51.397Z,12.50
2023-04-06T13:49:18.788Z,7.03
2023-04-06T13:51:47.572Z,4.30
2023-04-06T13:54:15.219Z,2.90
2023-04-06T13:56:42.655Z,2.53
2023-04-06T13:59:10.105Z,2.93
2023-04-06T14:01:37.628Z,3.13
2023-04-06T14:04:05.406Z,2.87
2023-04-06T14:06:32.926Z,3.47
2023-04-06T14:09:02.050Z,3.60
2023-04-06T14:11:29.847Z,2.83
2023-04-06T14:13:58.508Z,3.00
2023-04-06T14:16:27.295Z,3.10
2023-04-06T14:18:55.010Z,2.97
2023-04-06T14:21:22.420Z,3.20
2023-04-06T14:23:49.854Z,2.47
2023-04-06T14:26:18.588Z,2.70
2023-04-06T14:28:47.271Z,2.97
2023-04-06T14:31:17.050Z,3.20
2023-04-06T14:33:44.962Z,2.80
2023-04-06T14:36:12.839Z,3.30
2023-04-06T14:38:41.201Z,2.63
2023-04-06T14:41:10.261Z,2.90
2023-04-06T14:43:38.980Z,2.37
2023-04-06T14:46:06.564Z,2.80
2023-04-06T14:48:34.007Z,5.53
2023-04-06T14:51:01.422Z,3.73
2023-04-06T14:53:29.212Z,7.23
2023-04-06T14:55:56.993Z,3.70
2023-04-06T14:58:25.446Z,2.50
2023-04-06T15:00:59.818Z,2.70
2023-04-06T15:03:27.551Z,2.43
2023-04-06T15:05:55.538Z,2.93
2023-04-06T15:08:23.359Z,3.37
2023-04-06T15:10:51.540Z,5.93
2023-04-06T15:13:19.450Z,2.50
2023-04-06T15:15:46.962Z,2.50
2023-04-06T15:18:16.238Z,2.80
2023-04-06T15:20:44.626Z,2.33
2023-04-06T15:23:11.999Z,2.53
2023-04-06T15:25:42.089Z,2.43
2023-04-06T15:28:09.595Z,2.60
2023-04-06T15:30:37.114Z,2.40
2023-04-06T15:33:06.674Z,4.47
2023-04-06T15:35:40.226Z,2.70
2023-04-06T15:38:08.455Z,2.80
2023-04-06T15:40:37.133Z,6.63
2023-04-06T15:43:04.534Z,5.13
2023-04-06T15:45:31.936Z,3.27
2023-04-06T15:47:59.388Z,12.50
2023-04-06T15:50:27.965Z,7.17
2023-04-06T15:52:56.698Z,2.17
2023-04-06T15:55:24.330Z,2.37
2023-04-06T15:57:51.832Z,9.23
2023-04-06T16:00:19.973Z,4.33
2023-04-06T16:02:47.678Z,2.40
2023-04-06T16:05:15.311Z,2.80
2023-04-06T16:07:43.046Z,2.10
2023-04-06T16:10:12.322Z,2.43
2023-04-06T16:12:42.352Z,2.50
2023-04-06T16:15:10.797Z,2.67
2023-04-06T16:17:38.285Z,2.27
2023-04-06T16:20:06.899Z,2.70
2023-04-06T16:22:34.373Z,2.53
2023-04-06T16:25:02.046Z,2.90
2023-04-06T16:27:31.023Z,14.50
2023-04-06T16:29:58.422Z,9.07
2023-04-06T16:32:25.979Z,7.90
2023-04-06T16:34:53.574Z,2.87
2023-04-06T16:37:21.148Z,3.17
2023-04-06T16:39:48.579Z,3.13
2023-04-06T16:42:17.340Z,2.30
2023-04-06T16:44:48.470Z,2.30
2023-04-06T16:47:16.542Z,2.40
2023-04-06T16:49:44.035Z,2.13
2023-04-06T16:52:11.473Z,5.50
2023-04-06T16:54:38.983Z,2.70
2023-04-06T16:57:06.707Z,2.90
2023-04-06T16:59:34.256Z,16.73
2023-04-06T17:02:03.143Z,6.27
2023-04-06T17:04:31.056Z,7.50
2023-04-06T17:06:58.461Z,10.87
2023-04-06T17:09:25.902Z,7.07
2023-04-06T17:11:53.310Z,10.13
2023-04-06T17:14:20.807Z,3.20
2023-04-06T17:16:48.219Z,4.70
2023-04-06T17:19:17.031Z,4.10
2023-04-06T17:21:44.456Z,2.93
2023-04-06T17:24:12.041Z,2.60
2023-04-06T17:26:40.406Z,3.27
2023-04-06T17:29:07.951Z,10.27
2023-04-06T17:31:35.456Z,4.00
2023-04-06T17:34:02.986Z,3.27
2023-04-06T17:36:32.744Z,17.70
2023-04-06T17:39:00.542Z,3.23
2023-04-06T17:41:28.647Z,7.90
2023-04-06T17:43:56.290Z,3.20
2023-04-06T17:46:23.682Z,3.20
2023-04-06T17:48:51.979Z,3.57
2023-04-06T17:51:20.671Z,2.33
2023-04-06T17:53:49.759Z,5.73
2023-04-06T17:56:17.322Z,6.83
2023-04-06T17:58:45.380Z,34.07
2023-04-06T18:01:12.921Z,43.23
2023-04-06T18:03:40.326Z,13.90
2023-04-06T18:06:12.191Z,4.90
2023-04-06T18:08:39.665Z,23.70
2023-04-06T18:11:08.737Z,7.60
2023-04-06T18:13:39.281Z,12.23
2023-04-06T18:16:07.968Z,4.63
2023-04-06T18:18:35.479Z,10.17
2023-04-06T18:21:04.651Z,6.30
2023-04-06T18:23:32.283Z,3.50
2023-04-06T18:26:00.630Z,3.13
2023-04-06T18:28:31.158Z,3.67
2023-04-06T18:30:59.382Z,3.60
2023-04-06T18:33:28.096Z,4.27
2023-04-06T18:35:56.627Z,3.77
2023-04-06T18:38:24.176Z,4.30
2023-04-06T18:40:51.848Z,6.33
2023-04-06T18:43:19.451Z,4.37
2023-04-06T18:45:48.275Z,27.33
2023-04-06T18:48:15.698Z,6.27
2023-04-06T18:50:53.056Z,7.03
2023-04-06T18:53:21.171Z,5.27
2023-04-06T18:55:48.593Z,5.17
2023-04-06T18:58:16.014Z,6.47
2023-04-06T19:00:43.530Z,6.63
2023-04-06T19:03:12.418Z,12.23
2023-04-06T19:05:41.656Z,6.83
2023-04-06T19:08:09.965Z,7.93
2023-04-06T19:10:38.554Z,9.20
2023-04-06T19:13:06.353Z,5.13
2023-04-06T19:15:34.076Z,4.43
2023-04-06T19:18:01.668Z,7.70
2023-04-06T19:20:30.648Z,7.60
2023-04-06T19:22:58.585Z,5.03
2023-04-06T19:25:26.216Z,4.30
2023-04-06T19:27:53.686Z,4.87
2023-04-06T19:30:21.262Z,6.03
2023-04-06T19:32:48.985Z,17.43
2023-04-06T19:35:16.450Z,12.33
2023-04-06T19:37:45.314Z,5.23
2023-04-06T19:40:12.904Z,6.00
2023-04-06T19:42:40.852Z,8.17
2023-04-06T19:45:10.171Z,6.53
2023-04-06T19:47:37.769Z,7.87
2023-04-06T19:50:06.305Z,5.30
2023-04-06T19:52:34.035Z,5.23
2023-04-06T19:55:02.815Z,5.93
2023-04-06T20:01:17.460Z,5.40
2023-04-06T20:03:45.011Z,5.80
2023-04-06T20:06:12.490Z,5.43
2023-04-06T20:08:39.904Z,5.10
2023-04-06T20:11:08.905Z,6.83
2023-04-06T20:13:36.996Z,6.27
2023-04-06T20:16:05.490Z,6.47
2023-04-06T20:18:33.646Z,9.33
2023-04-06T20:21:01.362Z,6.07
2023-04-06T20:23:28.919Z,7.03
2023-04-06T20:25:56.379Z,5.13
2023-04-06T20:28:25.239Z,4.70
2023-04-06T20:30:53.272Z,5.77
2023-04-06T20:33:20.748Z,6.00
2023-04-06T20:35:48.177Z,5.60
2023-04-06T20:38:15.894Z,5.27
2023-04-06T20:40:45.352Z,4.97
2023-04-06T20:43:12.906Z,7.30
2023-04-06T20:45:42.365Z,6.40
2023-04-06T20:48:11.657Z,5.77
2023-04-06T20:50:39.239Z,8.40
2023-04-06T20:53:06.699Z,8.77
2023-04-06T20:55:34.514Z,5.20
2023-04-06T20:58:01.903Z,6.00
2023-04-06T21:00:29.331Z,6.07
2023-04-06T21:02:58.361Z,11.10
2023-04-06T21:05:25.850Z,11.23
2023-04-06T21:07:53.307Z,12.73
2023-04-06T21:10:20.972Z,11.13
2023-04-06T21:12:48.379Z,7.50
2023-04-06T21:15:15.843Z,8.73
2023-04-06T21:17:43.533Z,6.00
2023-04-06T21:20:12.953Z,10.40
2023-04-06T21:22:41.158Z,6.50
2023-04-06T21:25:09.238Z,6.70
2023-04-06T21:27:36.642Z,16.40
2023-04-06T21:30:04.657Z,19.87
2023-04-06T21:32:32.172Z,21.63
2023-04-06T21:34:59.646Z,7.40
2023-04-06T21:37:29.209Z,19.73
2023-04-06T21:39:57.610Z,5.73
2023-04-06T21:42:25.252Z,5.60
2023-04-06T21:44:52.860Z,6.43
2023-04-06T21:47:20.377Z,6.50
2023-04-06T21:49:48.022Z,5.50
2023-04-06T21:52:15.484Z,8.30
2023-04-06T21:54:44.299Z,14.00
2023-04-06T21:57:13.473Z,8.40
2023-04-06T21:59:40.989Z,6.07
2023-04-06T22:02:08.489Z,9.20
2023-04-06T22:04:36.165Z,11.57
2023-04-06T22:07:03.946Z,5.97
2023-04-06T22:09:32.292Z,6.70
2023-04-06T22:12:01.037Z,7.07
2023-04-06T22:14:28.593Z,7.33
2023-04-06T22:16:56.016Z,6.33
2023-04-06T22:19:23.431Z,6.63
2023-04-06T22:21:50.964Z,6.73
2023-04-06T22:24:18.587Z,6.87
2023-04-06T22:26:46.193Z,7.10
2023-04-06T22:29:14.936Z,8.10
2023-04-06T22:31:42.410Z,9.33
2023-04-06T22:34:09.994Z,9.77
2023-04-06T22:36:37.386Z,7.80
2023-04-06T22:39:04.982Z,7.03
2023-04-06T22:41:32.786Z,7.83
2023-04-06T22:44:00.205Z,7.47
2023-04-06T22:46:32.041Z,7.57
2023-04-06T22:48:59.583Z,13.70
2023-04-06T22:51:27.988Z,27.53
2023-04-06T22:53:55.416Z,7.77
2023-04-06T22:56:22.859Z,6.87
2023-04-06T22:58:51.124Z,8.50
2023-04-06T23:01:18.695Z,7.17
2023-04-06T23:03:47.577Z,7.50
2023-04-06T23:06:15.073Z,8.90
2023-04-06T23:08:42.509Z,15.40
2023-04-06T23:11:09.917Z,11.47
2023-04-06T23:13:37.367Z,14.33
2023-04-06T23:16:05.225Z,16.23
2023-04-06T23:18:32.633Z,15.93
2023-04-06T23:21:01.497Z,8.73
2023-04-06T23:23:28.921Z,9.83
2023-04-06T23:25:56.363Z,18.30
2023-04-06T23:28:23.807Z,13.80
2023-04-06T23:30:51.509Z,14.10
2023-04-06T23:33:19.111Z,16.77
2023-04-06T23:35:46.917Z,17.47
2023-04-06T23:38:15.677Z,14.57
2023-04-06T23:40:43.133Z,13.27
2023-04-06T23:43:10.742Z,13.73
2023-04-06T23:45:40.873Z,10.00
2023-04-06T23:48:08.445Z,10.67
2023-04-06T23:50:35.988Z,11.80
2023-04-06T23:53:03.450Z,8.37
2023-04-06T23:55:32.361Z,9.00
2023-04-06T23:58:00.130Z,8.07
